sensor_id;sensor_type;location;lat;lon;timestamp;pressure;altitude;pressure_sealevel;temperature
79089;BMP280;68489;50.286;9.452;2023-09-12T00:00:42;97137.88;;;17.64
79089;BMP280;68489;50.286;9.452;2023-09-12T00:03:08;97142.75;;;17.60
79089;BMP280;68489;50.286;9.452;2023-09-12T00:05:33;97138.84;;;17.55
79089;BMP280;68489;50.286;9.452;2023-09-12T00:07:58;97139.56;;;17.50
79089;BMP280;68489;50.286;9.452;2023-09-12T00:10:24;97143.00;;;17.45
79089;BMP280;68489;50.286;9.452;2023-09-12T00:12:49;97140.31;;;17.40
79089;BMP280;68489;50.286;9.452;2023-09-12T00:15:15;97137.84;;;17.36
79089;BMP280;68489;50.286;9.452;2023-09-12T00:17:40;97137.38;;;17.32
79089;BMP280;68489;50.286;9.452;2023-09-12T00:20:06;97132.97;;;17.29
79089;BMP280;68489;50.286;9.452;2023-09-12T00:22:32;97133.44;;;17.27
79089;BMP280;68489;50.286;9.452;2023-09-12T00:24:58;97130.50;;;17.25
79089;BMP280;68489;50.286;9.452;2023-09-12T00:27:23;97121.94;;;17.21
79089;BMP280;68489;50.286;9.452;2023-09-12T00:29:48;97117.03;;;17.20
79089;BMP280;68489;50.286;9.452;2023-09-12T00:32:14;97115.34;;;17.17
79089;BMP280;68489;50.286;9.452;2023-09-12T00:34:39;97109.50;;;17.13
79089;BMP280;68489;50.286;9.452;2023-09-12T00:37:04;97106.53;;;17.10
79089;BMP280;68489;50.286;9.452;2023-09-12T00:39:30;97097.50;;;17.08
79089;BMP280;68489;50.286;9.452;2023-09-12T00:41:55;97090.91;;;17.09
79089;BMP280;68489;50.286;9.452;2023-09-12T00:44:20;97096.53;;;17.11
79089;BMP280;68489;50.286;9.452;2023-09-12T00:46:47;97098.03;;;17.12
79089;BMP280;68489;50.286;9.452;2023-09-12T00:49:13;97092.66;;;17.12
79089;BMP280;68489;50.286;9.452;2023-09-12T00:51:39;97099.47;;;17.13
79089;BMP280;68489;50.286;9.452;2023-09-12T00:54:06;97098.03;;;17.12
79089;BMP280;68489;50.286;9.452;2023-09-12T00:56:31;97095.34;;;17.12
79089;BMP280;68489;50.286;9.452;2023-09-12T00:58:57;97092.16;;;17.14
79089;BMP280;68489;50.286;9.452;2023-09-12T01:01:23;97088.00;;;17.13
79089;BMP280;68489;50.286;9.452;2023-09-12T01:03:49;97092.38;;;17.10
79089;BMP280;68489;50.286;9.452;2023-09-12T01:06:14;97087.50;;;17.08
79089;BMP280;68489;50.286;9.452;2023-09-12T01:08:41;97094.84;;;17.08
79089;BMP280;68489;50.286;9.452;2023-09-12T01:11:08;97094.34;;;17.09
79089;BMP280;68489;50.286;9.452;2023-09-12T01:13:33;97098.97;;;17.09
79089;BMP280;68489;50.286;9.452;2023-09-12T01:15:59;97101.88;;;17.05
79089;BMP280;68489;50.286;9.452;2023-09-12T01:18:24;97103.13;;;17.04
79089;BMP280;68489;50.286;9.452;2023-09-12T01:21:17;97092.34;;;16.99
79089;BMP280;68489;50.286;9.452;2023-09-12T01:28:54;97091.09;;;16.89
79089;BMP280;68489;50.286;9.452;2023-09-12T01:31:20;97088.94;;;16.87
79089;BMP280;68489;50.286;9.452;2023-09-12T01:33:47;97085.03;;;16.88
79089;BMP280;68489;50.286;9.452;2023-09-12T01:36:12;97093.31;;;16.90
79089;BMP280;68489;50.286;9.452;2023-09-12T01:38:38;97092.84;;;16.92
79089;BMP280;68489;50.286;9.452;2023-09-12T01:41:03;97091.84;;;16.95
79089;BMP280;68489;50.286;9.452;2023-09-12T01:43:30;97086.97;;;16.99
79089;BMP280;68489;50.286;9.452;2023-09-12T01:45:58;97087.00;;;17.04
79089;BMP280;68489;50.286;9.452;2023-09-12T01:48:26;97090.69;;;17.07
79089;BMP280;68489;50.286;9.452;2023-09-12T01:50:55;97099.47;;;17.07
79089;BMP280;68489;50.286;9.452;2023-09-12T01:53:21;97087.25;;;17.06
79089;BMP280;68489;50.286;9.452;2023-09-12T01:55:47;97082.13;;;17.03
79089;BMP280;68489;50.286;9.452;2023-09-12T01:58:13;97080.16;;;16.98
79089;BMP280;68489;50.286;9.452;2023-09-12T02:00:42;97083.59;;;16.98
79089;BMP280;68489;50.286;9.452;2023-09-12T02:03:07;97076.47;;;17.01
79089;BMP280;68489;50.286;9.452;2023-09-12T02:05:32;97075.53;;;17.04
79089;BMP280;68489;50.286;9.452;2023-09-12T02:07:58;97067.22;;;17.07
79089;BMP280;68489;50.286;9.452;2023-09-12T02:10:26;97072.34;;;17.17
79089;BMP280;68489;50.286;9.452;2023-09-12T02:12:52;97065.28;;;17.25
79089;BMP280;68489;50.286;9.452;2023-09-12T02:15:17;97069.47;;;17.37
79089;BMP280;68489;50.286;9.452;2023-09-12T02:17:43;97068.69;;;17.42
79089;BMP280;68489;50.286;9.452;2023-09-12T02:20:09;97070.66;;;17.53
79089;BMP280;68489;50.286;9.452;2023-09-12T02:22:34;97075.03;;;17.61
79089;BMP280;68489;50.286;9.452;2023-09-12T02:25:00;97083.84;;;17.68
79089;BMP280;68489;50.286;9.452;2023-09-12T02:27:25;97075.06;;;17.78
79089;BMP280;68489;50.286;9.452;2023-09-12T02:29:51;97077.69;;;17.89
79089;BMP280;68489;50.286;9.452;2023-09-12T02:32:16;97081.63;;;17.83
79089;BMP280;68489;50.286;9.452;2023-09-12T02:34:41;97083.13;;;17.73
79089;BMP280;68489;50.286;9.452;2023-09-12T02:37:06;97080.41;;;17.61
79089;BMP280;68489;50.286;9.452;2023-09-12T02:39:32;97083.63;;;17.49
79089;BMP280;68489;50.286;9.452;2023-09-12T02:41:57;97084.81;;;17.36
79089;BMP280;68489;50.286;9.452;2023-09-12T02:44:22;97084.81;;;17.31
79089;BMP280;68489;50.286;9.452;2023-09-12T02:46:48;97089.47;;;17.30
79089;BMP280;68489;50.286;9.452;2023-09-12T02:49:13;97088.97;;;17.21
79089;BMP280;68489;50.286;9.452;2023-09-12T02:51:39;97082.63;;;17.13
79089;BMP280;68489;50.286;9.452;2023-09-12T02:54:04;97081.91;;;17.06
79089;BMP280;68489;50.286;9.452;2023-09-12T02:56:30;97072.34;;;17.00
79089;BMP280;68489;50.286;9.452;2023-09-12T02:58:56;97079.91;;;16.96
79089;BMP280;68489;50.286;9.452;2023-09-12T03:01:21;97076.00;;;16.91
79089;BMP280;68489;50.286;9.452;2023-09-12T03:03:47;97078.19;;;16.87
79089;BMP280;68489;50.286;9.452;2023-09-12T03:06:13;97068.63;;;16.80
79089;BMP280;68489;50.286;9.452;2023-09-12T03:08:39;97066.94;;;16.77
79089;BMP280;68489;50.286;9.452;2023-09-12T03:11:05;97065.47;;;16.76
79089;BMP280;68489;50.286;9.452;2023-09-12T03:13:32;97059.38;;;16.81
79089;BMP280;68489;50.286;9.452;2023-09-12T03:15:58;97058.88;;;16.89
79089;BMP280;68489;50.286;9.452;2023-09-12T03:18:23;97057.66;;;16.95
79089;BMP280;68489;50.286;9.452;2023-09-12T03:20:49;97062.31;;;17.00
79089;BMP280;68489;50.286;9.452;2023-09-12T03:23:14;97061.84;;;17.02
79089;BMP280;68489;50.286;9.452;2023-09-12T03:25:39;97067.47;;;16.98
79089;BMP280;68489;50.286;9.452;2023-09-12T03:28:05;97068.41;;;16.95
79089;BMP280;68489;50.286;9.452;2023-09-12T03:30:33;97061.34;;;16.92
79089;BMP280;68489;50.286;9.452;2023-09-12T03:32:59;97066.69;;;16.87
79089;BMP280;68489;50.286;9.452;2023-09-12T03:35:24;97062.28;;;16.83
79089;BMP280;68489;50.286;9.452;2023-09-12T03:37:49;97064.50;;;16.79
79089;BMP280;68489;50.286;9.452;2023-09-12T03:40:14;97060.59;;;16.80
79089;BMP280;68489;50.286;9.452;2023-09-12T03:42:40;97057.63;;;16.78
79089;BMP280;68489;50.286;9.452;2023-09-12T03:45:05;97051.06;;;16.74
79089;BMP280;68489;50.286;9.452;2023-09-12T03:47:31;97053.50;;;16.77
79089;BMP280;68489;50.286;9.452;2023-09-12T03:49:56;97048.38;;;16.74
79089;BMP280;68489;50.286;9.452;2023-09-12T03:52:22;97047.41;;;16.71
79089;BMP280;68489;50.286;9.452;2023-09-12T03:54:47;97037.63;;;16.68
79089;BMP280;68489;50.286;9.452;2023-09-12T03:57:12;97047.63;;;16.68
79089;BMP280;68489;50.286;9.452;2023-09-12T03:59:38;97040.81;;;16.72
79089;BMP280;68489;50.286;9.452;2023-09-12T04:02:03;97043.00;;;16.74
79089;BMP280;68489;50.286;9.452;2023-09-12T04:04:28;97039.34;;;16.71
79089;BMP280;68489;50.286;9.452;2023-09-12T04:06:54;97043.72;;;16.69
79089;BMP280;68489;50.286;9.452;2023-09-12T04:09:20;97044.69;;;16.66
79089;BMP280;68489;50.286;9.452;2023-09-12T04:11:45;97053.47;;;16.61
79089;BMP280;68489;50.286;9.452;2023-09-12T04:14:11;97042.72;;;16.55
79089;BMP280;68489;50.286;9.452;2023-09-12T04:16:36;97037.59;;;16.51
79089;BMP280;68489;50.286;9.452;2023-09-12T04:19:02;97037.56;;;16.46
79089;BMP280;68489;50.286;9.452;2023-09-12T04:21:28;97042.41;;;16.42
79089;BMP280;68489;50.286;9.452;2023-09-12T04:23:53;97043.38;;;16.39
79089;BMP280;68489;50.286;9.452;2023-09-12T04:26:19;97043.34;;;16.33
79089;BMP280;68489;50.286;9.452;2023-09-12T04:28:46;97043.34;;;16.33
79089;BMP280;68489;50.286;9.452;2023-09-12T04:31:12;97038.44;;;16.31
79089;BMP280;68489;50.286;9.452;2023-09-12T04:33:37;97039.22;;;16.32
79089;BMP280;68489;50.286;9.452;2023-09-12T04:36:02;97035.78;;;16.31
79089;BMP280;68489;50.286;9.452;2023-09-12T04:38:28;97033.88;;;16.38
79089;BMP280;68489;50.286;9.452;2023-09-12T04:40:55;97029.25;;;16.44
79089;BMP280;68489;50.286;9.452;2023-09-12T04:43:20;97038.56;;;16.60
79089;BMP280;68489;50.286;9.452;2023-09-12T04:45:45;97031.00;;;16.64
79089;BMP280;68489;50.286;9.452;2023-09-12T04:48:11;97025.41;;;16.67
79089;BMP280;68489;50.286;9.452;2023-09-12T04:50:41;97027.88;;;16.71
79089;BMP280;68489;50.286;9.452;2023-09-12T04:53:06;97029.56;;;16.74
79089;BMP280;68489;50.286;9.452;2023-09-12T04:55:32;97031.53;;;16.73
79089;BMP280;68489;50.286;9.452;2023-09-12T04:57:57;97035.94;;;16.76
79089;BMP280;68489;50.286;9.452;2023-09-12T05:00:22;97034.97;;;16.79
79089;BMP280;68489;50.286;9.452;2023-09-12T05:02:47;97045.94;;;16.81
79089;BMP280;68489;50.286;9.452;2023-09-12T05:05:13;97043.28;;;16.87
79089;BMP280;68489;50.286;9.452;2023-09-12T05:07:38;97044.22;;;16.90
79089;BMP280;68489;50.286;9.452;2023-09-12T05:10:03;97040.63;;;16.93
79089;BMP280;68489;50.286;9.452;2023-09-12T05:12:29;97044.75;;;16.99
79089;BMP280;68489;50.286;9.452;2023-09-12T05:14:54;97046.72;;;17.10
79089;BMP280;68489;50.286;9.452;2023-09-12T05:17:19;97050.88;;;17.17
79089;BMP280;68489;50.286;9.452;2023-09-12T05:19:44;97044.03;;;17.27
79089;BMP280;68489;50.286;9.452;2023-09-12T05:22:10;97045.50;;;17.33
79089;BMP280;68489;50.286;9.452;2023-09-12T05:24:35;97047.69;;;17.46
79089;BMP280;68489;50.286;9.452;2023-09-12T05:27:00;97052.31;;;17.68
79089;BMP280;68489;50.286;9.452;2023-09-12T05:29:26;97055.22;;;17.81
79089;BMP280;68489;50.286;9.452;2023-09-12T05:31:51;97065.97;;;17.92
79089;BMP280;68489;50.286;9.452;2023-09-12T05:34:16;97073.75;;;18.07
79089;BMP280;68489;50.286;9.452;2023-09-12T05:36:42;97070.03;;;18.22
79089;BMP280;68489;50.286;9.452;2023-09-12T05:39:07;97077.09;;;18.30
79089;BMP280;68489;50.286;9.452;2023-09-12T05:41:33;97079.75;;;18.41
79089;BMP280;68489;50.286;9.452;2023-09-12T05:43:58;97091.66;;;18.57
79089;BMP280;68489;50.286;9.452;2023-09-12T05:46:23;97089.41;;;18.67
79089;BMP280;68489;50.286;9.452;2023-09-12T05:48:48;97089.34;;;18.78
79089;BMP280;68489;50.286;9.452;2023-09-12T05:51:14;97089.28;;;18.89
79089;BMP280;68489;50.286;9.452;2023-09-12T05:53:39;97078.44;;;19.00
79089;BMP280;68489;50.286;9.452;2023-09-12T05:56:04;97085.19;;;19.13
79089;BMP280;68489;50.286;9.452;2023-09-12T05:58:29;97090.25;;;19.27
79089;BMP280;68489;50.286;9.452;2023-09-12T06:00:55;97092.09;;;19.38
79089;BMP280;68489;50.286;9.452;2023-09-12T06:03:20;97092.25;;;19.51
79089;BMP280;68489;50.286;9.452;2023-09-12T06:05:46;97087.97;;;19.62
79089;BMP280;68489;50.286;9.452;2023-09-12T06:08:11;97082.03;;;19.69
79089;BMP280;68489;50.286;9.452;2023-09-12T06:10:37;97082.47;;;19.73
79089;BMP280;68489;50.286;9.452;2023-09-12T06:13:02;97082.47;;;19.73
79089;BMP280;68489;50.286;9.452;2023-09-12T06:15:28;97081.97;;;19.74
79089;BMP280;68489;50.286;9.452;2023-09-12T06:17:53;97077.53;;;19.77
79089;BMP280;68489;50.286;9.452;2023-09-12T06:20:19;97082.19;;;19.76
79089;BMP280;68489;50.286;9.452;2023-09-12T06:22:44;97085.81;;;19.79
79089;BMP280;68489;50.286;9.452;2023-09-12T06:25:09;97088.53;;;19.79
79089;BMP280;68489;50.286;9.452;2023-09-12T06:27:35;97088.22;;;19.88
79089;BMP280;68489;50.286;9.452;2023-09-12T06:30:00;97086.66;;;19.93
79089;BMP280;68489;50.286;9.452;2023-09-12T06:32:26;97087.41;;;19.93
79089;BMP280;68489;50.286;9.452;2023-09-12T06:34:51;97087.50;;;20.06
79089;BMP280;68489;50.286;9.452;2023-09-12T06:37:16;97080.13;;;20.07
79089;BMP280;68489;50.286;9.452;2023-09-12T06:39:41;97071.84;;;20.05
79089;BMP280;68489;50.286;9.452;2023-09-12T06:42:08;97074.31;;;20.03
79089;BMP280;68489;50.286;9.452;2023-09-12T06:44:33;97077.25;;;20.05
79089;BMP280;68489;50.286;9.452;2023-09-12T06:46:58;97079.88;;;20.10
79089;BMP280;68489;50.286;9.452;2023-09-12T06:49:24;97071.66;;;20.22
79089;BMP280;68489;50.286;9.452;2023-09-12T06:51:49;97067.84;;;20.30
79089;BMP280;68489;50.286;9.452;2023-09-12T06:54:14;97069.47;;;20.39
79089;BMP280;68489;50.286;9.452;2023-09-12T06:56:40;97066.28;;;20.54
79089;BMP280;68489;50.286;9.452;2023-09-12T06:59:07;97059.91;;;20.70
79089;BMP280;68489;50.286;9.452;2023-09-12T07:01:33;97065.31;;;20.89
79089;BMP280;68489;50.286;9.452;2023-09-12T07:03:59;97061.50;;;21.11
79089;BMP280;68489;50.286;9.452;2023-09-12T07:06:24;97070.06;;;21.28
79089;BMP280;68489;50.286;9.452;2023-09-12T07:08:49;97071.16;;;21.51
79089;BMP280;68489;50.286;9.452;2023-09-12T07:11:16;97080.09;;;21.46
79089;BMP280;68489;50.286;9.452;2023-09-12T07:13:41;97087.69;;;21.48
79089;BMP280;68489;50.286;9.452;2023-09-12T07:16:07;97081.84;;;21.44
79089;BMP280;68489;50.286;9.452;2023-09-12T07:18:32;97079.88;;;21.44
79089;BMP280;68489;50.286;9.452;2023-09-12T07:20:59;97081.75;;;21.49
79089;BMP280;68489;50.286;9.452;2023-09-12T07:23:25;97084.16;;;21.53
79089;BMP280;68489;50.286;9.452;2023-09-12T07:25:50;97075.94;;;21.59
79089;BMP280;68489;50.286;9.452;2023-09-12T07:28:15;97082.00;;;21.65
79089;BMP280;68489;50.286;9.452;2023-09-12T07:30:41;97070.63;;;21.66
79089;BMP280;68489;50.286;9.452;2023-09-12T07:33:06;97072.19;;;21.75
79089;BMP280;68489;50.286;9.452;2023-09-12T07:35:31;97068.03;;;21.74
79089;BMP280;68489;50.286;9.452;2023-09-12T07:37:57;97069.59;;;21.83
79089;BMP280;68489;50.286;9.452;2023-09-12T07:40:22;97074.38;;;21.90
79089;BMP280;68489;50.286;9.452;2023-09-12T07:42:47;97072.19;;;21.88
79089;BMP280;68489;50.286;9.452;2023-09-12T07:45:13;97068.88;;;21.95
79089;BMP280;68489;50.286;9.452;2023-09-12T07:47:39;97068.31;;;22.10
79089;BMP280;68489;50.286;9.452;2023-09-12T07:50:04;97084.84;;;22.20
79089;BMP280;68489;50.286;9.452;2023-09-12T07:52:32;97088.16;;;22.39
79089;BMP280;68489;50.286;9.452;2023-09-12T07:55:02;97089.34;;;22.51
79089;BMP280;68489;50.286;9.452;2023-09-12T07:57:28;97095.47;;;22.65
79089;BMP280;68489;50.286;9.452;2023-09-12T07:59:54;97097.91;;;22.76
79089;BMP280;68489;50.286;9.452;2023-09-12T08:02:19;97098.13;;;22.99
79089;BMP280;68489;50.286;9.452;2023-09-12T08:04:44;97101.47;;;23.13
79089;BMP280;68489;50.286;9.452;2023-09-12T08:07:10;97091.94;;;23.19
79089;BMP280;68489;50.286;9.452;2023-09-12T08:09:51;97095.63;;;23.30
79089;BMP280;68489;50.286;9.452;2023-09-12T08:12:18;97099.16;;;23.45
79089;BMP280;68489;50.286;9.452;2023-09-12T08:14:44;97094.47;;;23.46
79089;BMP280;68489;50.286;9.452;2023-09-12T08:19:35;97092.94;;;23.94
79089;BMP280;68489;50.286;9.452;2023-09-12T08:22:00;97088.50;;;24.20
79089;BMP280;68489;50.286;9.452;2023-09-12T08:24:26;97090.34;;;24.40
79089;BMP280;68489;50.286;9.452;2023-09-12T08:26:51;97084.94;;;24.55
79089;BMP280;68489;50.286;9.452;2023-09-12T08:29:16;97087.88;;;24.57
79089;BMP280;68489;50.286;9.452;2023-09-12T08:31:41;97085.84;;;24.50
79089;BMP280;68489;50.286;9.452;2023-09-12T08:34:06;97079.69;;;24.42
79089;BMP280;68489;50.286;9.452;2023-09-12T08:36:32;97079.47;;;24.40
79089;BMP280;68489;50.286;9.452;2023-09-12T08:38:57;97075.16;;;24.45
79089;BMP280;68489;50.286;9.452;2023-09-12T08:41:22;97070.44;;;24.45
79089;BMP280;68489;50.286;9.452;2023-09-12T08:43:48;97080.97;;;24.56
79089;BMP280;68489;50.286;9.452;2023-09-12T08:46:15;97074.09;;;24.63
79089;BMP280;68489;50.286;9.452;2023-09-12T08:48:42;97083.88;;;24.81
79089;BMP280;68489;50.286;9.452;2023-09-12T08:51:08;97092.25;;;24.91
79089;BMP280;68489;50.286;9.452;2023-09-12T08:53:35;97098.19;;;25.20
79089;BMP280;68489;50.286;9.452;2023-09-12T08:56:01;97098.00;;;25.41
79089;BMP280;68489;50.286;9.452;2023-09-12T08:58:30;97102.31;;;25.59
79089;BMP280;68489;50.286;9.452;2023-09-12T09:00:56;97097.94;;;25.64
79089;BMP280;68489;50.286;9.452;2023-09-12T09:03:22;97112.03;;;25.85
79089;BMP280;68489;50.286;9.452;2023-09-12T09:05:48;97106.88;;;26.04
79089;BMP280;68489;50.286;9.452;2023-09-12T09:08:14;97098.78;;;26.21
79089;BMP280;68489;50.286;9.452;2023-09-12T09:10:54;97102.50;;;26.41
79089;BMP280;68489;50.286;9.452;2023-09-12T09:13:19;97108.63;;;26.49
79089;BMP280;68489;50.286;9.452;2023-09-12T09:15:45;97099.53;;;26.72
79089;BMP280;68489;50.286;9.452;2023-09-12T09:18:11;97099.88;;;26.76
79089;BMP280;68489;50.286;9.452;2023-09-12T09:20:37;97102.59;;;26.76
79089;BMP280;68489;50.286;9.452;2023-09-12T09:23:07;97101.03;;;26.90
79089;BMP280;68489;50.286;9.452;2023-09-12T09:25:39;97099.66;;;26.99
79089;BMP280;68489;50.286;9.452;2023-09-12T09:28:05;97092.56;;;27.03
79089;BMP280;68489;50.286;9.452;2023-09-12T09:30:42;97096.31;;;27.08
79089;BMP280;68489;50.286;9.452;2023-09-12T09:33:08;97093.28;;;27.21
79089;BMP280;68489;50.286;9.452;2023-09-12T09:35:34;97092.41;;;27.36
79089;BMP280;68489;50.286;9.452;2023-09-12T09:38:00;97091.78;;;27.45
79089;BMP280;68489;50.286;9.452;2023-09-12T09:40:25;97090.78;;;27.50
79089;BMP280;68489;50.286;9.452;2023-09-12T09:42:55;97087.81;;;27.56
79089;BMP280;68489;50.286;9.452;2023-09-12T09:45:21;97082.94;;;27.54
79089;BMP280;68489;50.286;9.452;2023-09-12T09:47:49;97084.28;;;27.28
79089;BMP280;68489;50.286;9.452;2023-09-12T09:50:15;97080.59;;;27.51
79089;BMP280;68489;50.286;9.452;2023-09-12T09:52:42;97087.94;;;27.75
79089;BMP280;68489;50.286;9.452;2023-09-12T09:55:08;97093.78;;;27.89
79089;BMP280;68489;50.286;9.452;2023-09-12T09:57:38;97081.88;;;27.94
79089;BMP280;68489;50.286;9.452;2023-09-12T10:00:03;97088.47;;;27.91
79089;BMP280;68489;50.286;9.452;2023-09-12T10:02:35;97091.06;;;27.89
79089;BMP280;68489;50.286;9.452;2023-09-12T10:05:05;97094.59;;;28.09
79089;BMP280;68489;50.286;9.452;2023-09-12T10:07:35;97094.53;;;28.16
79089;BMP280;68489;50.286;9.452;2023-09-12T10:10:03;97092.97;;;28.23
79089;BMP280;68489;50.286;9.452;2023-09-12T10:12:30;97089.63;;;28.15
79089;BMP280;68489;50.286;9.452;2023-09-12T10:15:00;97094.22;;;28.12
79089;BMP280;68489;50.286;9.452;2023-09-12T11:26:59;97048.47;;;30.37
79089;BMP280;68489;50.286;9.452;2023-09-12T11:29:35;97048.94;;;30.33
79089;BMP280;68489;50.286;9.452;2023-09-12T11:32:02;97051.22;;;30.37
79089;BMP280;68489;50.286;9.452;2023-09-12T11:34:29;97048.22;;;30.33
79089;BMP280;68489;50.286;9.452;2023-09-12T11:36:56;97056.47;;;30.23
79089;BMP280;68489;50.286;9.452;2023-09-12T11:39:30;97052.47;;;30.14
79089;BMP280;68489;50.286;9.452;2023-09-12T11:41:57;97062.75;;;30.04
79089;BMP280;68489;50.286;9.452;2023-09-12T11:44:23;97049.94;;;29.97
79089;BMP280;68489;50.286;9.452;2023-09-12T11:46:49;97048.41;;;29.84
79089;BMP280;68489;50.286;9.452;2023-09-12T11:49:15;97053.09;;;30.03
79089;BMP280;68489;50.286;9.452;2023-09-12T11:51:52;97049.88;;;30.16
79089;BMP280;68489;50.286;9.452;2023-09-12T11:54:24;97044.53;;;30.18
79089;BMP280;68489;50.286;9.452;2023-09-12T11:56:50;97052.22;;;30.32
79089;BMP280;68489;50.286;9.452;2023-09-12T11:59:22;97047.53;;;30.22
79089;BMP280;68489;50.286;9.452;2023-09-12T12:01:48;97047.75;;;30.36
79089;BMP280;68489;50.286;9.452;2023-09-12T12:04:13;97051.25;;;30.48
79089;BMP280;68489;50.286;9.452;2023-09-12T12:06:39;97042.78;;;30.44
79089;BMP280;68489;50.286;9.452;2023-09-12T12:09:05;97043.56;;;30.35
79089;BMP280;68489;50.286;9.452;2023-09-12T12:11:31;97051.66;;;30.33
79089;BMP280;68489;50.286;9.452;2023-09-12T12:13:57;97049.25;;;30.28
79089;BMP280;68489;50.286;9.452;2023-09-12T12:16:25;97044.31;;;30.26
79089;BMP280;68489;50.286;9.452;2023-09-12T12:18:50;97049.47;;;30.41
79089;BMP280;68489;50.286;9.452;2023-09-12T12:21:19;97039.84;;;30.52
79089;BMP280;68489;50.286;9.452;2023-09-12T12:23:44;97042.19;;;30.46
79089;BMP280;68489;50.286;9.452;2023-09-12T12:26:11;97032.28;;;30.41
79089;BMP280;68489;50.286;9.452;2023-09-12T12:28:37;97031.13;;;30.34
79089;BMP280;68489;50.286;9.452;2023-09-12T12:31:02;97031.03;;;30.32
79089;BMP280;68489;50.286;9.452;2023-09-12T12:33:28;97031.69;;;30.42
79089;BMP280;68489;50.286;9.452;2023-09-12T12:36:04;97031.69;;;30.42
79089;BMP280;68489;50.286;9.452;2023-09-12T12:38:37;97032.28;;;30.41
79089;BMP280;68489;50.286;9.452;2023-09-12T12:41:03;97033.66;;;30.51
79089;BMP280;68489;50.286;9.452;2023-09-12T12:43:28;97032.38;;;30.43
79089;BMP280;68489;50.286;9.452;2023-09-12T12:45:55;97027.00;;;30.54
79089;BMP280;68489;50.286;9.452;2023-09-12T12:48:34;97021.63;;;30.56
79089;BMP280;68489;50.286;9.452;2023-09-12T12:53:43;97024.75;;;30.63
79089;BMP280;68489;50.286;9.452;2023-09-12T12:56:12;97029.72;;;30.54
79089;BMP280;68489;50.286;9.452;2023-09-12T12:58:37;97032.47;;;30.54
79089;BMP280;68489;50.286;9.452;2023-09-12T13:01:03;97030.25;;;30.63
79089;BMP280;68489;50.286;9.452;2023-09-12T13:03:28;97032.53;;;30.66
79089;BMP280;68489;50.286;9.452;2023-09-12T13:05:53;97019.38;;;30.86
79089;BMP280;68489;50.286;9.452;2023-09-12T13:08:19;97023.38;;;30.73
79089;BMP280;68489;50.286;9.452;2023-09-12T13:10:44;97012.06;;;30.79
79089;BMP280;68489;50.286;9.452;2023-09-12T13:13:10;97017.44;;;30.98
79089;BMP280;68489;50.286;9.452;2023-09-12T13:15:36;97009.06;;;30.96
79089;BMP280;68489;50.286;9.452;2023-09-12T13:18:01;97011.97;;;31.10
79089;BMP280;68489;50.286;9.452;2023-09-12T13:20:26;97005.50;;;31.17
79089;BMP280;68489;50.286;9.452;2023-09-12T13:22:52;97012.69;;;31.22
79089;BMP280;68489;50.286;9.452;2023-09-12T13:25:17;97007.56;;;31.28
79089;BMP280;68489;50.286;9.452;2023-09-12T13:27:43;97006.28;;;31.29
79089;BMP280;68489;50.286;9.452;2023-09-12T13:30:08;96998.16;;;31.31
79089;BMP280;68489;50.286;9.452;2023-09-12T13:32:33;97002.44;;;31.23
79089;BMP280;68489;50.286;9.452;2023-09-12T13:34:59;97000.16;;;31.19
79089;BMP280;68489;50.286;9.452;2023-09-12T13:37:24;97009.09;;;31.19
79089;BMP280;68489;50.286;9.452;2023-09-12T13:39:49;97008.84;;;31.04
79089;BMP280;68489;50.286;9.452;2023-09-12T13:42:15;96994.16;;;30.99
79089;BMP280;68489;50.286;9.452;2023-09-12T13:44:44;96996.25;;;30.89
79089;BMP280;68489;50.286;9.452;2023-09-12T13:47:09;96991.88;;;30.96
79089;BMP280;68489;50.286;9.452;2023-09-12T13:49:34;96993.09;;;31.04
79089;BMP280;68489;50.286;9.452;2023-09-12T13:51:59;96991.09;;;30.83
79089;BMP280;68489;50.286;9.452;2023-09-12T13:54:25;96985.75;;;30.97
79089;BMP280;68489;50.286;9.452;2023-09-12T13:56:50;96976.91;;;30.87
79089;BMP280;68489;50.286;9.452;2023-09-12T13:59:15;96989.72;;;30.73
79089;BMP280;68489;50.286;9.452;2023-09-12T14:01:41;96985.50;;;30.60
79089;BMP280;68489;50.286;9.452;2023-09-12T14:04:06;96986.81;;;30.59
79089;BMP280;68489;50.286;9.452;2023-09-12T14:06:33;96990.66;;;30.66
79089;BMP280;68489;50.286;9.452;2023-09-12T14:08:59;96986.66;;;30.78
79089;BMP280;68489;50.286;9.452;2023-09-12T14:11:24;96987.56;;;30.71
79089;BMP280;68489;50.286;9.452;2023-09-12T14:13:49;96979.16;;;30.58
79089;BMP280;68489;50.286;9.452;2023-09-12T14:16:14;96981.44;;;30.61
79089;BMP280;68489;50.286;9.452;2023-09-12T14:18:39;96980.47;;;30.56
79089;BMP280;68489;50.286;9.452;2023-09-12T14:21:05;96978.66;;;30.49
79089;BMP280;68489;50.286;9.452;2023-09-12T14:23:30;96980.81;;;30.51
79089;BMP280;68489;50.286;9.452;2023-09-12T14:25:55;96976.75;;;30.52
79089;BMP280;68489;50.286;9.452;2023-09-12T14:28:21;96983.50;;;30.39
79089;BMP280;68489;50.286;9.452;2023-09-12T14:30:46;96975.59;;;30.34
79089;BMP280;68489;50.286;9.452;2023-09-12T14:33:13;96977.31;;;30.29
79089;BMP280;68489;50.286;9.452;2023-09-12T14:35:40;96972.06;;;30.21
79089;BMP280;68489;50.286;9.452;2023-09-12T14:38:05;96969.50;;;30.14
79089;BMP280;68489;50.286;9.452;2023-09-12T14:40:31;96972.38;;;30.16
79089;BMP280;68489;50.286;9.452;2023-09-12T14:42:56;96970.75;;;30.22
79089;BMP280;68489;50.286;9.452;2023-09-12T14:45:21;96964.19;;;30.06
79089;BMP280;68489;50.286;9.452;2023-09-12T14:47:47;96969.53;;;30.04
79089;BMP280;68489;50.286;9.452;2023-09-12T14:50:12;96964.50;;;30.01
79089;BMP280;68489;50.286;9.452;2023-09-12T14:52:38;96963.41;;;29.94
79089;BMP280;68489;50.286;9.452;2023-09-12T14:55:04;96965.78;;;29.78
79089;BMP280;68489;50.286;9.452;2023-09-12T14:57:30;96959.19;;;29.72
79089;BMP280;68489;50.286;9.452;2023-09-12T14:59:55;96956.78;;;29.56
79089;BMP280;68489;50.286;9.452;2023-09-12T15:02:22;96958.41;;;29.40
79089;BMP280;68489;50.286;9.452;2023-09-12T15:04:47;96955.81;;;29.33
79089;BMP280;68489;50.286;9.452;2023-09-12T15:07:12;96956.63;;;29.14
79089;BMP280;68489;50.286;9.452;2023-09-12T15:09:38;96963.38;;;28.93
79089;BMP280;68489;50.286;9.452;2023-09-12T15:12:03;96949.00;;;28.74
79089;BMP280;68489;50.286;9.452;2023-09-12T15:14:29;96953.53;;;28.42
79089;BMP280;68489;50.286;9.452;2023-09-12T15:16:55;96938.03;;;28.35
79089;BMP280;68489;50.286;9.452;2023-09-12T15:19:22;96949.13;;;28.37
79089;BMP280;68489;50.286;9.452;2023-09-12T15:21:47;96955.25;;;28.18